sensor_id;sensor_type;location;lat;lon;timestamp;pressure;altitude;pressure_sealevel;temperature;humidity
19676;BME280;39539;52.202;9.876;2022-07-29T00:00:40;101139.13;;;16.29;63.38
19676;BME280;39539;52.202;9.876;2022-07-29T00:03:05;101151.13;;;16.38;63.22
19676;BME280;39539;52.202;9.876;2022-07-29T00:05:30;101120.47;;;16.34;63.13
19676;BME280;39539;52.202;9.876;2022-07-29T00:07:56;101131.31;;;16.39;63.16
19676;BME280;39539;52.202;9.876;2022-07-29T00:10:23;101137.97;;;16.36;63.22
19676;BME280;39539;52.202;9.876;2022-07-29T00:12:48;101142.16;;;16.44;63.38
19676;BME280;39539;52.202;9.876;2022-07-29T00:15:14;101139.59;;;16.37;63.60
19676;BME280;39539;52.202;9.876;2022-07-29T00:17:40;101130.94;;;16.47;63.15
19676;BME280;39539;52.202;9.876;2022-07-29T00:20:06;101131.06;;;16.41;63.71
19676;BME280;39539;52.202;9.876;2022-07-29T00:22:31;101128.06;;;16.37;64.00
19676;BME280;39539;52.202;9.876;2022-07-29T00:24:57;101131.31;;;16.39;64.13
19676;BME280;39539;52.202;9.876;2022-07-29T00:27:22;101105.53;;;16.26;64.17
19676;BME280;39539;52.202;9.876;2022-07-29T00:29:48;101114.97;;;16.29;63.78
19676;BME280;39539;52.202;9.876;2022-07-29T00:32:13;101109.63;;;16.29;63.99
19676;BME280;39539;52.202;9.876;2022-07-29T00:34:39;101116.50;;;16.36;64.27
19676;BME280;39539;52.202;9.876;2022-07-29T00:37:23;101109.97;;;16.32;64.26
19676;BME280;39539;52.202;9.876;2022-07-29T00:39:49;101113.69;;;16.31;64.22
19676;BME280;39539;52.202;9.876;2022-07-29T00:42:14;101108.00;;;16.28;64.21
19676;BME280;39539;52.202;9.876;2022-07-29T00:44:41;101114.97;;;16.29;64.25
19676;BME280;39539;52.202;9.876;2022-07-29T00:47:07;101108.91;;;16.22;64.57
19676;BME280;39539;52.202;9.876;2022-07-29T00:49:34;101116.03;;;16.28;64.20
19676;BME280;39539;52.202;9.876;2022-07-29T00:52:07;101103.53;;;16.22;64.44
19676;BME280;39539;52.202;9.876;2022-07-29T00:54:33;101113.59;;;16.14;64.83
19676;BME280;39539;52.202;9.876;2022-07-29T00:56:59;101096.44;;;16.15;64.93
19676;BME280;39539;52.202;9.876;2022-07-29T00:59:26;101098.91;;;16.05;65.19
19676;BME280;39539;52.202;9.876;2022-07-29T01:01:53;101100.31;;;16.08;65.42
19676;BME280;39539;52.202;9.876;2022-07-29T01:04:19;101087.78;;;16.02;65.49
19676;BME280;39539;52.202;9.876;2022-07-29T01:06:46;101091.31;;;16.02;65.30
19676;BME280;39539;52.202;9.876;2022-07-29T01:09:12;101085.72;;;16.04;65.27
19676;BME280;39539;52.202;9.876;2022-07-29T01:11:38;101095.75;;;16.08;65.65
19676;BME280;39539;52.202;9.876;2022-07-29T01:14:05;101089.31;;;16.09;65.71
19676;BME280;39539;52.202;9.876;2022-07-29T01:16:36;101071.25;;;15.93;65.70
19676;BME280;39539;52.202;9.876;2022-07-29T01:19:28;101076.47;;;15.88;66.01
19676;BME280;39539;52.202;9.876;2022-07-29T01:22:06;101077.75;;;15.74;67.12
19676;BME280;39539;52.202;9.876;2022-07-29T01:24:53;101081.81;;;15.76;67.55
19676;BME280;39539;52.202;9.876;2022-07-29T01:27:44;101064.44;;;15.67;67.64
19676;BME280;39539;52.202;9.876;2022-07-29T01:30:13;101072.72;;;15.65;68.05
19676;BME280;39539;52.202;9.876;2022-07-29T01:32:39;101073.91;;;15.69;67.81
19676;BME280;39539;52.202;9.876;2022-07-29T01:35:24;101057.81;;;15.69;66.87
19676;BME280;39539;52.202;9.876;2022-07-29T01:37:57;101069.38;;;15.82;66.79
19676;BME280;39539;52.202;9.876;2022-07-29T01:40:31;101082.56;;;15.83;67.20
19676;BME280;39539;52.202;9.876;2022-07-29T01:43:04;101069.38;;;15.82;66.88
19676;BME280;39539;52.202;9.876;2022-07-29T01:45:37;101080.56;;;15.79;66.86
19676;BME280;39539;52.202;9.876;2022-07-29T01:48:13;101071.81;;;15.71;67.40
19676;BME280;39539;52.202;9.876;2022-07-29T01:50:47;101068.63;;;15.63;67.89
19676;BME280;39539;52.202;9.876;2022-07-29T01:53:21;101074.44;;;15.60;68.14
19676;BME280;39539;52.202;9.876;2022-07-29T01:55:48;101059.84;;;15.44;68.35
19676;BME280;39539;52.202;9.876;2022-07-29T01:58:17;101067.63;;;15.45;68.76
19676;BME280;39539;52.202;9.876;2022-07-29T02:00:44;101054.47;;;15.32;69.26
19676;BME280;39539;52.202;9.876;2022-07-29T02:03:12;101057.13;;;15.32;69.34
19676;BME280;39539;52.202;9.876;2022-07-29T02:05:41;101063.75;;;15.30;69.83
19676;BME280;39539;52.202;9.876;2022-07-29T02:08:08;101055.84;;;15.23;70.12
19676;BME280;39539;52.202;9.876;2022-07-29T02:10:35;101053.38;;;15.21;70.23
19676;BME280;39539;52.202;9.876;2022-07-29T02:13:02;101057.66;;;15.22;70.26
19676;BME280;39539;52.202;9.876;2022-07-29T02:15:30;101029.44;;;15.08;70.40
19676;BME280;39539;52.202;9.876;2022-07-29T02:18:12;101051.28;;;15.23;70.57
19676;BME280;39539;52.202;9.876;2022-07-29T02:20:39;101039.16;;;15.21;70.37
19676;BME280;39539;52.202;9.876;2022-07-29T02:23:06;101057.59;;;15.29;70.19
19676;BME280;39539;52.202;9.876;2022-07-29T02:25:32;101041.16;;;15.25;70.09
19676;BME280;39539;52.202;9.876;2022-07-29T02:27:58;101049.09;;;15.32;69.95
19676;BME280;39539;52.202;9.876;2022-07-29T02:30:27;101042.19;;;15.24;70.32
19676;BME280;39539;52.202;9.876;2022-07-29T02:32:55;101053.41;;;15.33;70.12
19676;BME280;39539;52.202;9.876;2022-07-29T02:35:21;101045.59;;;15.32;69.87
19676;BME280;39539;52.202;9.876;2022-07-29T02:37:47;101046.91;;;15.41;69.81
19676;BME280;39539;52.202;9.876;2022-07-29T02:40:35;101041.41;;;15.36;69.76
19676;BME280;39539;52.202;9.876;2022-07-29T02:43:04;101043.50;;;15.34;69.67
19676;BME280;39539;52.202;9.876;2022-07-29T02:45:31;101046.78;;;15.36;69.48
19676;BME280;39539;52.202;9.876;2022-07-29T02:47:59;101050.06;;;15.38;69.67
19676;BME280;39539;52.202;9.876;2022-07-29T02:50:38;101042.69;;;15.33;69.45
19676;BME280;39539;52.202;9.876;2022-07-29T02:53:14;101044.31;;;15.34;69.69
19676;BME280;39539;52.202;9.876;2022-07-29T02:55:45;101049.81;;;15.39;69.94
19676;BME280;39539;52.202;9.876;2022-07-29T03:00:40;101035.25;;;15.35;70.26
19676;BME280;39539;52.202;9.876;2022-07-29T03:03:13;101037.69;;;15.37;70.22
19676;BME280;39539;52.202;9.876;2022-07-29T03:05:40;101044.31;;;15.34;70.40
19676;BME280;39539;52.202;9.876;2022-07-29T03:08:08;101028.94;;;15.30;70.24
19676;BME280;39539;52.202;9.876;2022-07-29T03:10:34;101037.22;;;15.40;69.94
19676;BME280;39539;52.202;9.876;2022-07-29T03:13:00;101040.50;;;15.42;70.36
19676;BME280;39539;52.202;9.876;2022-07-29T03:15:27;101036.88;;;15.36;70.51
19676;BME280;39539;52.202;9.876;2022-07-29T03:17:53;101030.91;;;15.34;70.37
19676;BME280;39539;52.202;9.876;2022-07-29T03:20:19;101037.69;;;15.37;69.96
19676;BME280;39539;52.202;9.876;2022-07-29T03:22:46;101034.78;;;15.38;70.25
19676;BME280;39539;52.202;9.876;2022-07-29T03:25:18;101025.94;;;15.38;70.05
19676;BME280;39539;52.202;9.876;2022-07-29T03:27:45;101029.06;;;15.35;70.26
19676;BME280;39539;52.202;9.876;2022-07-29T03:30:11;101024.75;;;15.34;70.43
19676;BME280;39539;52.202;9.876;2022-07-29T03:32:37;101030.56;;;15.31;70.70
19676;BME280;39539;52.202;9.876;2022-07-29T03:35:04;101018.34;;;15.23;70.70
19676;BME280;39539;52.202;9.876;2022-07-29T03:37:29;101001.59;;;14.97;71.32
19676;BME280;39539;52.202;9.876;2022-07-29T03:40:00;101028.91;;;15.18;71.24
19676;BME280;39539;52.202;9.876;2022-07-29T03:42:28;101028.91;;;15.18;71.32
19676;BME280;39539;52.202;9.876;2022-07-29T03:44:57;101027.25;;;15.17;71.38
19676;BME280;39539;52.202;9.876;2022-07-29T03:47:25;101012.44;;;15.02;71.11
19676;BME280;39539;52.202;9.876;2022-07-29T03:49:55;101022.69;;;15.05;71.22
19676;BME280;39539;52.202;9.876;2022-07-29T03:52:22;101031.81;;;15.16;71.40
19676;BME280;39539;52.202;9.876;2022-07-29T03:54:48;101031.81;;;15.16;71.36
19676;BME280;39539;52.202;9.876;2022-07-29T03:57:14;101029.59;;;15.13;71.26
19676;BME280;39539;52.202;9.876;2022-07-29T03:59:41;101018.75;;;15.08;71.48
19676;BME280;39539;52.202;9.876;2022-07-29T04:02:09;101015.91;;;15.03;71.74
19676;BME280;39539;52.202;9.876;2022-07-29T04:04:36;101022.13;;;15.03;72.63
19676;BME280;39539;52.202;9.876;2022-07-29T04:07:03;101033.06;;;15.14;72.20
19676;BME280;39539;52.202;9.876;2022-07-29T04:09:29;101027.22;;;15.05;72.95
19676;BME280;39539;52.202;9.876;2022-07-29T04:11:54;101033.84;;;15.02;73.19
19676;BME280;39539;52.202;9.876;2022-07-29T04:14:19;101029.91;;;15.05;73.20
19676;BME280;39539;52.202;9.876;2022-07-29T04:16:45;101027.38;;;15.10;73.22
19676;BME280;39539;52.202;9.876;2022-07-29T04:19:11;101042.75;;;15.15;72.75
19676;BME280;39539;52.202;9.876;2022-07-29T04:21:38;101047.97;;;15.10;73.03
19676;BME280;39539;52.202;9.876;2022-07-29T04:24:04;101035.41;;;15.10;73.11
19676;BME280;39539;52.202;9.876;2022-07-29T04:26:29;101029.09;;;15.04;73.23
19676;BME280;39539;52.202;9.876;2022-07-29T04:28:54;101042.28;;;15.06;73.76
19676;BME280;39539;52.202;9.876;2022-07-29T04:31:20;101016.28;;;14.76;75.20
19676;BME280;39539;52.202;9.876;2022-07-29T04:33:45;101038.00;;;14.87;75.02
19676;BME280;39539;52.202;9.876;2022-07-29T04:36:14;101047.75;;;14.81;75.47
19676;BME280;39539;52.202;9.876;2022-07-29T04:38:40;101036.72;;;14.89;74.73
19676;BME280;39539;52.202;9.876;2022-07-29T04:41:05;101040.97;;;15.09;74.02
19676;BME280;39539;52.202;9.876;2022-07-29T04:43:34;101042.53;;;15.16;73.49
19676;BME280;39539;52.202;9.876;2022-07-29T04:45:59;101033.47;;;15.17;72.93
19676;BME280;39539;52.202;9.876;2022-07-29T04:48:25;101048.47;;;15.18;73.49
19676;BME280;39539;52.202;9.876;2022-07-29T04:50:51;101038.72;;;15.24;73.35
19676;BME280;39539;52.202;9.876;2022-07-29T04:53:17;101049.31;;;15.31;73.56
19676;BME280;39539;52.202;9.876;2022-07-29T04:55:43;101051.63;;;15.27;73.67
19676;BME280;39539;52.202;9.876;2022-07-29T04:58:10;101047.28;;;15.14;74.38
19676;BME280;39539;52.202;9.876;2022-07-29T05:00:35;101041.66;;;15.04;74.76
19676;BME280;39539;52.202;9.876;2022-07-29T05:03:01;101048.88;;;15.03;74.24
19676;BME280;39539;52.202;9.876;2022-07-29T05:05:26;101051.25;;;15.12;74.19
19676;BME280;39539;52.202;9.876;2022-07-29T05:07:52;101060.91;;;15.13;73.90
19676;BME280;39539;52.202;9.876;2022-07-29T05:10:17;101042.28;;;15.06;73.96
19676;BME280;39539;52.202;9.876;2022-07-29T05:12:43;101058.34;;;15.06;75.11
19676;BME280;39539;52.202;9.876;2022-07-29T05:15:09;101041.06;;;15.02;75.20
19676;BME280;39539;52.202;9.876;2022-07-29T05:17:34;101049.75;;;15.16;75.36
19676;BME280;39539;52.202;9.876;2022-07-29T05:20:05;101048.84;;;15.34;74.77
19676;BME280;39539;52.202;9.876;2022-07-29T05:22:30;101053.28;;;15.40;73.66
19676;BME280;39539;52.202;9.876;2022-07-29T05:24:56;101058.31;;;15.48;74.18
19676;BME280;39539;52.202;9.876;2022-07-29T05:27:21;101061.31;;;15.82;72.97
19676;BME280;39539;52.202;9.876;2022-07-29T05:29:46;101049.56;;;15.83;72.47
19676;BME280;39539;52.202;9.876;2022-07-29T05:32:12;101060.03;;;16.43;70.03
19676;BME280;39539;52.202;9.876;2022-07-29T05:34:38;101055.44;;;16.79;68.32
19676;BME280;39539;52.202;9.876;2022-07-29T05:37:04;101022.97;;;16.69;68.05
19676;BME280;39539;52.202;9.876;2022-07-29T05:39:30;101042.22;;;16.77;67.96
19676;BME280;39539;52.202;9.876;2022-07-29T05:41:55;101036.97;;;16.71;68.63
19676;BME280;39539;52.202;9.876;2022-07-29T05:44:21;101026.88;;;16.49;69.07
19676;BME280;39539;52.202;9.876;2022-07-29T05:46:46;101011.84;;;16.48;70.17
19676;BME280;39539;52.202;9.876;2022-07-29T05:49:11;101012.78;;;16.42;70.49
19676;BME280;39539;52.202;9.876;2022-07-29T05:51:37;101020.22;;;16.52;69.11
19676;BME280;39539;52.202;9.876;2022-07-29T05:54:02;101014.84;;;16.00;71.09
19676;BME280;39539;52.202;9.876;2022-07-29T05:56:29;101003.97;;;16.06;71.38
19676;BME280;39539;52.202;9.876;2022-07-29T05:58:54;101024.22;;;16.37;70.80
19676;BME280;39539;52.202;9.876;2022-07-29T06:01:20;101031.94;;;16.34;70.39
19676;BME280;39539;52.202;9.876;2022-07-29T06:03:45;101036.81;;;16.37;70.72
19676;BME280;39539;52.202;9.876;2022-07-29T06:06:12;101030.66;;;16.36;70.70
19676;BME280;39539;52.202;9.876;2022-07-29T06:08:38;101028.41;;;16.45;71.14
19676;BME280;39539;52.202;9.876;2022-07-29T06:11:04;101032.72;;;16.46;70.97
19676;BME280;39539;52.202;9.876;2022-07-29T06:13:30;101026.13;;;16.77;70.02
19676;BME280;39539;52.202;9.876;2022-07-29T06:15:56;101033.31;;;16.89;69.39
19676;BME280;39539;52.202;9.876;2022-07-29T06:18:21;101023.75;;;17.10;68.61
19676;BME280;39539;52.202;9.876;2022-07-29T06:20:50;101040.31;;;17.81;66.17
19676;BME280;39539;52.202;9.876;2022-07-29T06:23:17;101037.31;;;19.31;61.04
19676;BME280;39539;52.202;9.876;2022-07-29T06:25:42;101007.97;;;20.88;56.71
19676;BME280;39539;52.202;9.876;2022-07-29T06:28:08;100997.25;;;21.39;54.05
19676;BME280;39539;52.202;9.876;2022-07-29T06:30:33;100979.28;;;20.03;56.88
19676;BME280;39539;52.202;9.876;2022-07-29T06:32:59;100960.91;;;18.88;59.46
19676;BME280;39539;52.202;9.876;2022-07-29T06:35:27;100971.53;;;19.00;60.13
19676;BME280;39539;52.202;9.876;2022-07-29T06:37:52;100974.50;;;19.31;58.90
19676;BME280;39539;52.202;9.876;2022-07-29T06:40:19;100972.13;;;19.07;58.97
19676;BME280;39539;52.202;9.876;2022-07-29T06:43:03;100956.69;;;19.29;57.83
19676;BME280;39539;52.202;9.876;2022-07-29T06:45:29;100971.09;;;19.45;58.13
19676;BME280;39539;52.202;9.876;2022-07-29T06:47:54;100965.91;;;19.71;57.66
19676;BME280;39539;52.202;9.876;2022-07-29T06:50:19;100966.16;;;19.00;58.79
19676;BME280;39539;52.202;9.876;2022-07-29T06:52:45;100970.00;;;19.09;59.23
19676;BME280;39539;52.202;9.876;2022-07-29T06:55:10;100961.03;;;19.31;58.91
19676;BME280;39539;52.202;9.876;2022-07-29T06:57:36;100963.19;;;20.18;57.24
19676;BME280;39539;52.202;9.876;2022-07-29T07:00:01;100961.72;;;20.53;55.48
19676;BME280;39539;52.202;9.876;2022-07-29T07:02:29;100944.91;;;20.51;55.56
19676;BME280;39539;52.202;9.876;2022-07-29T07:04:54;100940.03;;;20.33;55.31
19676;BME280;39539;52.202;9.876;2022-07-29T07:07:20;100942.63;;;20.07;56.38
19676;BME280;39539;52.202;9.876;2022-07-29T07:09:45;100931.97;;;19.80;57.18
19676;BME280;39539;52.202;9.876;2022-07-29T07:12:10;100924.22;;;19.14;58.63
19676;BME280;39539;52.202;9.876;2022-07-29T07:14:36;100932.16;;;18.99;60.33
19676;BME280;39539;52.202;9.876;2022-07-29T07:17:01;100930.38;;;19.10;59.68
19676;BME280;39539;52.202;9.876;2022-07-29T07:19:28;100928.31;;;18.90;60.31
19676;BME280;39539;52.202;9.876;2022-07-29T07:21:54;100920.88;;;19.02;60.90
19676;BME280;39539;52.202;9.876;2022-07-29T07:24:19;100927.75;;;19.57;59.25
19676;BME280;39539;52.202;9.876;2022-07-29T07:26:45;100929.72;;;19.29;59.70
19676;BME280;39539;52.202;9.876;2022-07-29T07:29:10;100933.28;;;19.78;58.10
19676;BME280;39539;52.202;9.876;2022-07-29T07:31:37;100934.75;;;20.01;57.64
19676;BME280;39539;52.202;9.876;2022-07-29T07:34:05;100929.25;;;19.38;58.63
19676;BME280;39539;52.202;9.876;2022-07-29T07:36:31;100939.63;;;19.61;59.04
19676;BME280;39539;52.202;9.876;2022-07-29T07:38:56;100941.47;;;19.93;57.83
19676;BME280;39539;52.202;9.876;2022-07-29T07:41:22;100949.09;;;20.06;57.53
19676;BME280;39539;52.202;9.876;2022-07-29T07:43:47;100928.03;;;20.08;57.38
19676;BME280;39539;52.202;9.876;2022-07-29T07:46:13;100935.53;;;20.64;56.60
19676;BME280;39539;52.202;9.876;2022-07-29T07:48:39;100929.88;;;20.91;55.09
19676;BME280;39539;52.202;9.876;2022-07-29T07:51:05;100929.88;;;20.96;55.34
19676;BME280;39539;52.202;9.876;2022-07-29T07:53:33;100919.06;;;21.12;54.56
19676;BME280;39539;52.202;9.876;2022-07-29T07:55:59;100920.16;;;20.85;54.93
19676;BME280;39539;52.202;9.876;2022-07-29T07:58:24;100906.63;;;21.36;53.93
19676;BME280;39539;52.202;9.876;2022-07-29T08:00:49;100923.94;;;21.25;53.56
19676;BME280;39539;52.202;9.876;2022-07-29T08:03:15;100926.16;;;22.18;52.14
19676;BME280;39539;52.202;9.876;2022-07-29T08:05:40;100921.63;;;22.93;51.11
19676;BME280;39539;52.202;9.876;2022-07-29T08:08:06;100915.78;;;23.15;49.04
19676;BME280;39539;52.202;9.876;2022-07-29T08:10:32;100912.19;;;22.90;50.21
19676;BME280;39539;52.202;9.876;2022-07-29T08:13:16;100893.16;;;22.06;51.66
19676;BME280;39539;52.202;9.876;2022-07-29T08:15:42;100898.16;;;22.38;50.90
19676;BME280;39539;52.202;9.876;2022-07-29T08:18:09;100884.81;;;22.03;52.04
19676;BME280;39539;52.202;9.876;2022-07-29T08:20:35;100890.41;;;21.51;52.72
19676;BME280;39539;52.202;9.876;2022-07-29T08:23:02;100864.75;;;21.23;53.27
19676;BME280;39539;52.202;9.876;2022-07-29T08:25:28;100894.19;;;21.45;53.64
19676;BME280;39539;52.202;9.876;2022-07-29T08:27:53;100885.41;;;21.79;52.55
19676;BME280;39539;52.202;9.876;2022-07-29T08:30:19;100901.28;;;22.06;51.99
19676;BME280;39539;52.202;9.876;2022-07-29T08:32:44;100888.50;;;22.22;51.93
19676;BME280;39539;52.202;9.876;2022-07-29T08:35:09;100891.22;;;22.17;51.73
19676;BME280;39539;52.202;9.876;2022-07-29T08:37:35;100892.88;;;22.18;51.67
19676;BME280;39539;52.202;9.876;2022-07-29T08:40:01;100888.78;;;22.26;51.43
19676;BME280;39539;52.202;9.876;2022-07-29T08:42:26;100896.63;;;22.17;52.29
19676;BME280;39539;52.202;9.876;2022-07-29T08:44:53;100873.06;;;21.58;53.21
19676;BME280;39539;52.202;9.876;2022-07-29T08:47:19;100875.22;;;21.50;53.58
19676;BME280;39539;52.202;9.876;2022-07-29T08:49:45;100874.16;;;21.51;53.26
19676;BME280;39539;52.202;9.876;2022-07-29T08:52:13;100897.88;;;21.80;53.68
19676;BME280;39539;52.202;9.876;2022-07-29T08:54:43;100906.69;;;22.11;52.78
19676;BME280;39539;52.202;9.876;2022-07-29T08:57:12;100893.50;;;21.94;52.79
19676;BME280;39539;52.202;9.876;2022-07-29T08:59:40;100875.03;;;22.07;52.93
19676;BME280;39539;52.202;9.876;2022-07-29T09:02:15;100891.31;;;22.51;51.69
19676;BME280;39539;52.202;9.876;2022-07-29T09:04:43;100895.03;;;22.95;50.74
19676;BME280;39539;52.202;9.876;2022-07-29T09:07:10;100901.22;;;23.88;48.93
19676;BME280;39539;52.202;9.876;2022-07-29T09:09:39;100881.44;;;25.15;46.84
19676;BME280;39539;52.202;9.876;2022-07-29T09:12:05;100888.72;;;25.61;45.52
19676;BME280;39539;52.202;9.876;2022-07-29T09:14:33;100887.63;;;25.89;45.82
19676;BME280;39539;52.202;9.876;2022-07-29T09:16:58;100871.94;;;26.09;44.78
19676;BME280;39539;52.202;9.876;2022-07-29T09:19:36;100862.94;;;26.22;44.29
19676;BME280;39539;52.202;9.876;2022-07-29T09:22:03;100864.03;;;26.21;44.78
19676;BME280;39539;52.202;9.876;2022-07-29T09:26:59;100846.06;;;25.56;45.09
19676;BME280;39539;52.202;9.876;2022-07-29T09:29:25;100845.44;;;24.33;47.50
19676;BME280;39539;52.202;9.876;2022-07-29T09:31:52;100841.44;;;24.50;47.40
19676;BME280;39539;52.202;9.876;2022-07-29T09:34:27;100853.00;;;24.88;47.53
19676;BME280;39539;52.202;9.876;2022-07-29T09:36:56;100862.41;;;25.42;45.72
19676;BME280;39539;52.202;9.876;2022-07-29T09:39:37;100837.28;;;24.85;45.69
19676;BME280;39539;52.202;9.876;2022-07-29T09:42:05;100832.88;;;24.56;46.49
19676;BME280;39539;52.202;9.876;2022-07-29T09:44:47;100813.88;;;24.37;46.56
19676;BME280;39539;52.202;9.876;2022-07-29T09:47:17;100814.50;;;24.67;46.52
19676;BME280;39539;52.202;9.876;2022-07-29T09:49:57;100819.81;;;24.39;46.37
19676;BME280;39539;52.202;9.876;2022-07-29T09:52:25;100818.44;;;24.04;46.66
19676;BME280;39539;52.202;9.876;2022-07-29T09:54:51;100805.22;;;23.79;47.46
19676;BME280;39539;52.202;9.876;2022-07-29T09:57:26;100814.47;;;23.96;47.86
19676;BME280;39539;52.202;9.876;2022-07-29T10:02:30;100808.16;;;24.01;46.78
19676;BME280;39539;52.202;9.876;2022-07-29T10:04:56;100807.34;;;24.19;48.32
19676;BME280;39539;52.202;9.876;2022-07-29T10:07:22;100806.63;;;23.95;49.29
19676;BME280;39539;52.202;9.876;2022-07-29T10:09:56;100805.66;;;24.24;48.94
19676;BME280;39539;52.202;9.876;2022-07-29T10:12:23;100813.63;;;24.72;47.29
19676;BME280;39539;52.202;9.876;2022-07-29T10:14:49;100811.50;;;24.69;46.37
19676;BME280;39539;52.202;9.876;2022-07-29T10:17:15;100812.75;;;25.04;46.68
19676;BME280;39539;52.202;9.876;2022-07-29T10:19:41;100832.06;;;25.63;46.34
19676;BME280;39539;52.202;9.876;2022-07-29T10:22:09;100813.38;;;25.70;46.41
19676;BME280;39539;52.202;9.876;2022-07-29T10:24:36;100811.31;;;26.03;46.71
19676;BME280;39539;52.202;9.876;2022-07-29T10:27:04;100817.13;;;25.88;44.81
19676;BME280;39539;52.202;9.876;2022-07-29T10:29:31;100817.38;;;26.36;43.83
19676;BME280;39539;52.202;9.876;2022-07-29T10:43:29;100803.59;;;25.69;45.38
19676;BME280;39539;52.202;9.876;2022-07-29T10:45:57;100803.59;;;25.83;44.33
19676;BME280;39539;52.202;9.876;2022-07-29T10:48:23;100795.06;;;25.48;44.99
19676;BME280;39539;52.202;9.876;2022-07-29T10:50:53;100791.78;;;25.04;45.72
19676;BME280;39539;52.202;9.876;2022-07-29T10:53:21;100783.00;;;24.94;45.71
19676;BME280;39539;52.202;9.876;2022-07-29T10:55:47;100789.19;;;24.85;46.12
19676;BME280;39539;52.202;9.876;2022-07-29T10:58:16;100790.13;;;24.62;46.53
19676;BME280;39539;52.202;9.876;2022-07-29T11:00:43;100795.34;;;24.58;46.09
19676;BME280;39539;52.202;9.876;2022-07-29T11:03:08;100795.31;;;24.77;46.29
19676;BME280;39539;52.202;9.876;2022-07-29T11:05:54;100790.59;;;24.83;46.09
19676;BME280;39539;52.202;9.876;2022-07-29T11:08:21;100792.69;;;24.86;46.18
19676;BME280;39539;52.202;9.876;2022-07-29T11:10:53;100791.03;;;24.71;46.74
19676;BME280;39539;52.202;9.876;2022-07-29T11:16:07;100780.22;;;24.52;47.10
19676;BME280;39539;52.202;9.876;2022-07-29T11:18:32;100786.47;;;24.53;47.21
19676;BME280;39539;52.202;9.876;2022-07-29T11:20:58;100793.16;;;24.60;47.05
19676;BME280;39539;52.202;9.876;2022-07-29T11:23:32;100796.63;;;24.47;47.32
19676;BME280;39539;52.202;9.876;2022-07-29T11:26:19;100786.47;;;24.53;47.36
19676;BME280;39539;52.202;9.876;2022-07-29T11:31:43;100784.19;;;24.41;47.86
19676;BME280;39539;52.202;9.876;2022-07-29T11:34:26;100800.16;;;24.94;47.44
19676;BME280;39539;52.202;9.876;2022-07-29T11:47:25;100767.53;;;24.94;46.00
19676;BME280;39539;52.202;9.876;2022-07-29T11:49:52;100785.66;;;25.13;46.21
19676;BME280;39539;52.202;9.876;2022-07-29T11:52:19;100775.91;;;25.12;45.91
19676;BME280;39539;52.202;9.876;2022-07-29T11:54:47;100773.50;;;25.24;45.59
19676;BME280;39539;52.202;9.876;2022-07-29T11:57:14;100778.72;;;25.06;46.26
19676;BME280;39539;52.202;9.876;2022-07-29T11:59:42;100779.25;;;25.22;45.95
19676;BME280;39539;52.202;9.876;2022-07-29T12:02:08;100779.03;;;25.19;46.00
19676;BME280;39539;52.202;9.876;2022-07-29T12:04:39;100785.38;;;25.56;45.51
19676;BME280;39539;52.202;9.876;2022-07-29T12:07:13;100792.00;;;25.77;44.80
19676;BME280;39539;52.202;9.876;2022-07-29T12:09:38;100774.44;;;25.69;45.04
19676;BME280;39539;52.202;9.876;2022-07-29T12:12:04;100772.59;;;25.92;45.21
19676;BME280;39539;52.202;9.876;2022-07-29T12:14:31;100773.06;;;25.58;45.29
19676;BME280;39539;52.202;9.876;2022-07-29T12:16:58;100761.34;;;25.85;45.15
19676;BME280;39539;52.202;9.876;2022-07-29T12:19:23;100775.00;;;26.08;44.52
19676;BME280;39539;52.202;9.876;2022-07-29T12:21:50;100773.88;;;26.09;44.87
19676;BME280;39539;52.202;9.876;2022-07-29T12:24:17;100774.09;;;26.21;44.50
19676;BME280;39539;52.202;9.876;2022-07-29T12:26:57;100768.19;;;26.64;44.05
19676;BME280;39539;52.202;9.876;2022-07-29T12:29:23;100765.28;;;26.69;42.60
19676;BME280;39539;52.202;9.876;2022-07-29T12:31:53;100756.47;;;25.96;43.95
19676;BME280;39539;52.202;9.876;2022-07-29T12:34:23;100757.50;;;26.09;43.47
19676;BME280;39539;52.202;9.876;2022-07-29T12:36:49;100757.44;;;26.00;44.23
19676;BME280;39539;52.202;9.876;2022-07-29T12:39:16;100768.19;;;26.19;44.03
19676;BME280;39539;52.202;9.876;2022-07-29T12:41:43;100757.41;;;26.14;44.20
19676;BME280;39539;52.202;9.876;2022-07-29T12:44:09;100753.06;;;25.90;44.54
19676;BME280;39539;52.202;9.876;2022-07-29T12:46:35;100768.13;;;26.33;43.92
19676;BME280;39539;52.202;9.876;2022-07-29T12:49:00;100758.38;;;26.18;44.52
19676;BME280;39539;52.202;9.876;2022-07-29T12:51:34;100764.75;;;25.77;45.26
19676;BME280;39539;52.202;9.876;2022-07-29T12:56:28;100752.06;;;26.54;44.14
19676;BME280;39539;52.202;9.876;2022-07-29T12:58:53;100754.44;;;26.78;43.29
19676;BME280;39539;52.202;9.876;2022-07-29T13:01:19;100749.44;;;26.71;43.60
19676;BME280;39539;52.202;9.876;2022-07-29T13:03:51;100742.25;;;26.75;43.59
19676;BME280;39539;52.202;9.876;2022-07-29T13:06:35;100741.38;;;26.66;43.54
19676;BME280;39539;52.202;9.876;2022-07-29T13:11:32;100743.50;;;26.24;43.05
19676;BME280;39539;52.202;9.876;2022-07-29T13:13:57;100740.75;;;26.47;43.39
19676;BME280;39539;52.202;9.876;2022-07-29T13:16:23;100741.88;;;26.68;42.69
19676;BME280;39539;52.202;9.876;2022-07-29T13:19:06;100737.81;;;26.34;43.66
19676;BME280;39539;52.202;9.876;2022-07-29T13:21:32;100725.69;;;26.18;44.22
19676;BME280;39539;52.202;9.876;2022-07-29T13:23:58;100737.59;;;26.22;44.40
19676;BME280;39539;52.202;9.876;2022-07-29T13:26:23;100735.22;;;26.29;44.14
19676;BME280;39539;52.202;9.876;2022-07-29T13:28:48;100731.06;;;26.54;42.86
19676;BME280;39539;52.202;9.876;2022-07-29T13:31:14;100737.19;;;26.60;42.61
19676;BME280;39539;52.202;9.876;2022-07-29T13:33:40;100729.56;;;26.48;43.07